Tiempo atmosférico en la estación meteorológica de Alhama de Murcia, Murcia (157 m.)



Fecha
DESCASC
Temp. máxima en grados centígrados (hora)
DESCASC
Temp. mínima en grados centígrados (hora)
DESCASC
Temp. media en grados centígrados
DESCASC
Racha de viento máxima en m/sg (hora)
DESCASC
Velocidad máxima media en intervalos de 10 minutos(hora)
DESCASC
Precipitaciones diarias en mm
DESCASC
Precipitaciones de 00:00 a 06:00 en mm
DESCASC
Precipitaciones de 06:00 a 12:00 en mm
DESCASC
Precipitaciones de 12:00 a 18:00 en mm
DESCASC
Precipitaciones de 18:00 a 24:00 en mm
DESCASC
24-01-2021 22.5 (13:20) 12.1 (19:20) 17.3 13.61 (01:20) 8.61 (02:00) 0 0 0 0 0
23-01-2021 19.2 (15:10) 3.6 (08:40) 11.4 12.22 (20:30) 7.22 (22:10) 0 0 0 0 0
22-01-2021 21.1 (12:50) 10 (23:00) 15.6 21.94 (10:40) 11.39 (10:40) 0 0 0 0 0
21-01-2021 21.3 (14:50) 7.3 (00:00) 14.3 11.39 (14:50) 6.11 (22:30) 0 0 0 0 0
20-01-2021 11.2 (16:50) 4.8 (00:00) 8 8.06 (23:10) 5 (22:40) 0.2 0 0 0.2 0
19-01-2021 15.4 (15:30) 3.3 (00:00) 9.3 4.72 (23:00) 2.78 (23:00) 0 0 0 0 0
18-01-2021 17 (16:00) 3.8 (00:00) 10.4 8.33 (03:40) 3.33 (01:00) 0 0 0 0 0
17-01-2021 20.2 (16:20) -0.1 (00:00) 10.1 6.94 (13:50) 4.17 (14:40) 0 0 0 0 0
16-01-2021 15.9 (16:00) 4.3 (00:00) 10.1 11.67 (06:30) 6.11 (05:40) 0 0 0 0 0
15-01-2021 17.4 (16:10) 8.3 (00:00) 12.8 8.61 (03:30) 4.72 (01:10) 0 0 0 0 0
14-01-2021 19.1 (16:10) -1.3 (08:10) 8.9 6.39 (23:59) 3.33 (23:59) 0 0 0 0 0
13-01-2021 16.7 (15:50) 0.1 (00:00) 8.4 5 (11:00) 2.78 (09:10) 0 0 0 0 0
12-01-2021 13.8 (15:30) 1.4 (00:00) 7.6 5.83 (07:50) 3.33 (07:10) 0 0 0 0 0
11-01-2021 11.3 (15:40) 3.9 (00:00) 7.6 5.83 (04:30) 2.5 (23:10) 0 0 0 0 0
10-01-2021 8.9 (15:50) 2.8 (01:50) 5.8 6.11 (08:30) 3.33 (12:50) 0.2 0.2 0 0 0
09-01-2021 10.1 (15:30) 5.2 (00:00) 7.7 6.39 (01:30) 4.17 (01:30) 2.8 2.6 0.2 0 0
08-01-2021 5.9 (19:00) 3.4 (00:00) 4.7 8.61 (22:00) 5.56 (22:00) 22 8.2 4.4 4.8 4.6
07-01-2021 6.5 (00:00) 3.8 (00:00) 5.1 7.78 (03:50) 4.72 (03:50) 15.6 6.8 5.4 2.8 0.6
06-01-2021 11.3 (15:50) 1.6 (00:00) 6.5 5.28 (13:50) 3.33 (15:00) 0.6 0 0 0 0.6
05-01-2021 11.8 (15:50) 1.3 (00:00) 6.6 6.39 (14:40) 3.61 (14:30) 0 0 0 0 0
04-01-2021 14.9 (16:30) -2.8 (-00:0) 6 6.11 (12:20) 3.33 (15:30) 0 0 0 0 0
03-01-2021 12.7 (15:30) -0.6 (-00:0) 6 10.28 (11:10) 5.28 (14:00) 0 0 0 0 0
02-01-2021 11.6 (14:20) 0.6 (00:00) 6.1 11.39 (13:50) 5.83 (15:20) 0 0 0 0 0
01-01-2021 13 (14:20) 1.4 (00:00) 7.2 13.89 (11:50) 6.39 (11:40) 0 0 0 0 0
31-12-2020 15.6 (16:00) -1.8 (-00:0) 6.9 5.28 (16:50) 2.78 (17:00) 0 0 0 0 0
30-12-2020 13.3 (16:00) 3.6 (00:00) 8.5 10 (07:00) 5.56 (13:00) 0 0 0 0 0
29-12-2020 16.1 (14:50) 4.3 (00:00) 10.2 10 (11:50) 5.28 (16:50) 0 0 0 0 0
28-12-2020 17.2 (16:20) 6.1 (00:00) 11.7 18.61 (03:30) 10.83 (03:30) 0 0 0 0 0
27-12-2020 15.3 (15:20) -3.1 (-00:0) 6.1 14.44 (22:50) 7.78 (23:10) 0 0 0 0 0
26-12-2020 12 (15:20) 0.4 (00:00) 6.2 10 (00:50) 5.56 (10:50) 0 0 0 0 0

Gráficas

Temp. máximas Temp. mínimas Temp. medias Precipitaciones Rachas de viento máximas Velocidades máximas media en intervalos de 10 minutos

Datos horarios

Fecha y hora oficial Temperatura (ºC) Velocidad del viento (km/h) Dirección del viento Racha (km/h) Dirección de racha Precipitación (mm) Presión (hPa) Tendencia (hPa) Humedad (%)
2021-01-24 23:00:00 14.5 5 Este 17 Nordeste 0 -- -- 45
2021-01-24 22:00:00 15 10 Nordeste 19 Este 0 -- -- 48
2021-01-24 21:00:00 14.5 10 Nordeste 21 Nordeste 0 -- -- 50
2021-01-24 20:00:00 12.7 2 Sur 12 Sur 0 -- -- 64
2021-01-24 19:00:00 12.6 4 Sudoeste 7 Sudoeste 0 -- -- 71
2021-01-24 18:00:00 17 3 Oeste 11 Sudoeste 0 -- -- 51
2021-01-24 17:00:00 19.8 4 Norte 18 Nordeste 0 -- -- 41
2021-01-24 16:00:00 22 8 Nordeste 18 Nordeste 0 -- -- 29
2021-01-24 15:00:00 21.7 12 Nordeste 19 Nordeste 0 -- -- 30
2021-01-24 14:00:00 22.1 10 Norte 19 Nordeste 0 -- -- 29
2021-01-24 13:00:00 22.1 13 Nordeste 24 Norte 0 -- -- 32
2021-01-24 12:00:00 22 7 Noroeste 17 Nordeste 0 -- -- 33
2021-01-24 11:00:00 20.2 5 Sudoeste 22 Sur 0 -- -- 44
2021-01-24 10:00:00 17.2 12 Sur 22 Sur 0 -- -- 57
2021-01-24 09:00:00 16.4 12 Sur 24 Sudoeste 0 -- -- 58
2021-01-24 08:00:00 16.3 13 Sur 30 Sur 0 -- -- 58
2021-01-24 07:00:00 17 18 Sur 33 Sudoeste 0 -- -- 56
2021-01-24 06:00:00 17.4 23 Sur 49 Sur 0 -- -- 55
2021-01-24 05:00:00 17.4 23 Sur 44 Sudoeste 0 -- -- 55
2021-01-24 04:00:00 16.7 26 Sur 44 Sudoeste 0 -- -- 57
2021-01-24 03:00:00 15.7 24 Sudoeste 45 Sur 0 -- -- 60
2021-01-24 02:00:00 15.8 31 Sur 49 Sur 0 -- -- 59
2021-01-24 01:00:00 15.7 26 Sudoeste 45 Sudoeste 0 -- -- 59
2021-01-24 00:00:00 15.5 24 Sudoeste 44 Sudoeste 0 -- -- 59
2021-01-23 23:00:00 15 24 Sudoeste 39 Sur 0 -- -- 58
2021-01-23 22:00:00 15.3 22 Sur 42 Sur 0 -- -- 56
2021-01-23 21:00:00 14.8 21 Sur 44 Sur 0 -- -- 53
2021-01-23 20:00:00 15 22 Sur 39 Sur 0 -- -- 47
2021-01-23 19:00:00 15 16 Sudoeste 38 Sur 0 -- -- 45
2021-01-23 18:00:00 16.5 16 Sudoeste 32 Sudoeste 0 -- -- 38
2021-01-23 17:00:00 17.8 15 Sudoeste 32 Sudoeste 0 -- -- 35
2021-01-23 16:00:00 18.9 15 Sudoeste 33 Sudoeste 0 -- -- 32
2021-01-23 15:00:00 19.1 15 Sudoeste 33 Sudoeste 0 -- -- 32
2021-01-23 14:00:00 17.6 19 Sur 38 Sur 0 -- -- 35
2021-01-23 13:00:00 16.8 16 Sur 32 Sudoeste 0 -- -- 37
2021-01-23 12:00:00 15.9 14 Sudoeste 32 Sudoeste 0 -- -- 37
2021-01-23 11:00:00 13.8 13 Sudoeste 24 Sur 0 -- -- 45
2021-01-23 10:00:00 8.7 10 Sudoeste 18 Sudoeste 0 -- -- 70
2021-01-23 09:00:00 4 8 Sudoeste 11 Sudoeste 0 -- -- 89
2021-01-23 08:00:00 4.3 2 Sudoeste 10 Sudoeste 0 -- -- 84
2021-01-23 07:00:00 5.7 4 Sudoeste 15 Sur 0 -- -- 76
2021-01-23 06:00:00 6.9 8 Sudoeste 13 Sudoeste 0 -- -- 70
2021-01-23 05:00:00 9.5 9 Sur 19 Sur 0 -- -- 58
2021-01-23 04:00:00 8.9 11 Sur 18 Sudoeste 0 -- -- 58
2021-01-23 03:00:00 8.8 12 Sur 17 Sur 0 -- -- 57
2021-01-23 02:00:00 10 8 Sur 22 Sur 0 -- -- 52
2021-01-23 01:00:00 10.2 12 Sur 23 Sur 0 -- -- 52
2021-01-23 00:00:00 10.4 3 Sur 16 Noroeste 0 -- -- 53
2021-01-22 23:00:00 10 3 Norte 16 Norte 0 -- -- 54
2021-01-22 22:00:00 11.2 4 Nordeste 21 Sur 0 -- -- 51
2021-01-22 21:00:00 12.6 13 Este 31 Oeste 0 -- -- 46
2021-01-22 20:00:00 14.2 13 Noroeste 46 Oeste 0 -- -- 42
2021-01-22 19:00:00 12.8 7 Noroeste 40 Oeste 0 -- -- 56
2021-01-22 18:00:00 15.3 19 Noroeste 53 Noroeste 0 -- -- 46
2021-01-22 17:00:00 17.2 32 Oeste 58 Oeste 0 -- -- 38
2021-01-22 16:00:00 19.1 26 Oeste 63 Oeste 0 -- -- 32
2021-01-22 15:00:00 20.5 20 Oeste 60 Oeste 0 -- -- 25
2021-01-22 14:00:00 20.6 27 Oeste 62 Sudoeste 0 -- -- 26
2021-01-22 13:00:00 21 31 Oeste 60 Oeste 0 -- -- 28
2021-01-22 12:00:00 20.7 19 Oeste 75 Oeste 0 -- -- 27
2021-01-22 11:00:00 20.6 37 Oeste 79 Sudoeste 0 -- -- 30
2021-01-22 10:00:00 19.5 29 Sudoeste 64 Oeste 0 -- -- 39
2021-01-22 09:00:00 17 14 Sudoeste 49 Sur 0 -- -- 50
2021-01-22 08:00:00 17.8 26 Sur 48 Sur 0 -- -- 51
2021-01-22 07:00:00 16.9 22 Sur 37 Sur 0 -- -- 53
2021-01-22 06:00:00 16.5 17 Sur 33 Sudoeste 0 -- -- 53
2021-01-22 05:00:00 14.9 9 Sudoeste 36 Sur 0 -- -- 57
2021-01-22 04:00:00 15.5 22 Sur 40 Sur 0 -- -- 53
2021-01-22 03:00:00 14.9 29 Sur 41 Sur 0 -- -- 56
2021-01-22 02:00:00 14.4 21 Sur 33 Sur 0 -- -- 60
2021-01-22 01:00:00 14.8 19 Sudoeste 42 Sur 0 -- -- 60
2021-01-22 00:00:00 15 19 Sur 37 Sur 0 -- -- 61
2021-01-21 23:00:00 15.4 18 Sur 33 Sur 0 -- -- 59
2021-01-21 22:00:00 15.7 21 Sur 33 Sur 0 -- -- 57
2021-01-21 21:00:00 15.5 18 Sur 31 Sur 0 -- -- 57
2021-01-21 20:00:00 16.3 17 Sur 29 Sur 0 -- -- 53
2021-01-21 19:00:00 16.1 13 Sudoeste 30 Sudoeste 0 -- -- 50
2021-01-21 18:00:00 16.3 13 Sur 28 Oeste 0 -- -- 48
2021-01-21 17:00:00 17.9 17 Sudoeste 35 Sudoeste 0 -- -- 43
2021-01-21 16:00:00 18.7 13 Sudoeste 30 Sur 0 -- -- 43
2021-01-21 15:00:00 20.7 21 Oeste 41 Oeste 0 -- -- 37
2021-01-21 14:00:00 19.8 19 Sudoeste 40 Sudoeste 0 -- -- 41
2021-01-21 13:00:00 19.6 21 Sudoeste 37 Sudoeste 0 -- -- 43
2021-01-21 12:00:00 18 17 Sur 31 Sur 0 -- -- 49
2021-01-21 11:00:00 16.3 14 Sudoeste 25 Sudoeste 0 -- -- 56
2021-01-21 10:00:00 12.7 8 Sudoeste 27 Sur 0 -- -- 69
2021-01-21 09:00:00 12.1 14 Sur 29 Sur 0 -- -- 68
2021-01-21 08:00:00 11.8 18 Sur 29 Sur 0 -- -- 68
2021-01-21 07:00:00 11.4 14 Sur 24 Sur 0 -- -- 64
2021-01-21 06:00:00 10.9 15 Sur 27 Sur 0 -- -- 69
2021-01-21 05:00:00 11.2 16 Sur 25 Sur 0 -- -- 69
2021-01-21 04:00:00 8.1 8 Sudoeste 20 Sur 0 -- -- 88
2021-01-21 03:00:00 7.8 8 Sudoeste 16 Sudoeste 0 -- -- 94
2021-01-21 02:00:00 8.5 7 Sudoeste 20 Sudoeste 0 -- -- 90
2021-01-21 01:00:00 8.1 9 Sudoeste 19 Sur 0 -- -- 93
2021-01-21 00:00:00 8.5 10 Sudoeste 29 Sur 0 -- -- 90
2021-01-20 23:00:00 11 18 Sudoeste 28 Sur 0 -- -- 83
2021-01-20 22:00:00 7.8 10 Sudoeste 18 Sudoeste 0 -- -- 98
2021-01-20 21:00:00 7 3 Nordeste 9 Nordeste 0 -- -- 96
2021-01-20 20:00:00 7.7 3 Este 5 Sudeste 0 -- -- 95
2021-01-20 19:00:00 8.4 2 Nordeste 12 Nordeste 0 -- -- 93
2021-01-20 18:00:00 9.7 6 Nordeste 15 Sur 0 -- -- 86
2021-01-20 17:00:00 11.1 8 Sudoeste 21 Oeste 0 -- -- 79
2021-01-20 16:00:00 9.1 0 Calma 8 Sudoeste 0 -- -- 91
2021-01-20 15:00:00 8.7 3 Norte 16 Norte 0.2 -- -- 93
2021-01-20 14:00:00 8.3 10 Nordeste 20 Nordeste 0 -- -- 90
2021-01-20 13:00:00 8.4 9 Nordeste 17 Nordeste 0 -- -- 87
2021-01-20 12:00:00 8.8 8 Nordeste 16 Nordeste 0 -- -- 87
2021-01-20 11:00:00 7.8 9 Nordeste 13 Norte 0 -- -- 94
2021-01-20 10:00:00 6.9 2 Nordeste 4 Nordeste 0 -- -- 99
2021-01-20 09:00:00 6.3 3 Oeste 6 Sudeste 0 -- -- 99
2021-01-20 08:00:00 6 2 Nordeste 6 Norte 0 -- -- 99
2021-01-20 07:00:00 5.6 0 Calma 6 Este 0 -- -- 99
2021-01-20 06:00:00 5 0 Calma 9 Oeste 0 -- -- 98
2021-01-20 05:00:00 5.5 3 Sudoeste 8 Sudoeste 0 -- -- 98
2021-01-20 04:00:00 6.2 4 Sudoeste 10 Sudoeste 0 -- -- 97
2021-01-20 03:00:00 7.5 6 Sudoeste 13 Sudoeste 0 -- -- 98
2021-01-20 02:00:00 7.9 4 Sudoeste 10 Sudoeste 0 -- -- 97
2021-01-20 01:00:00 7.9 3 Sudoeste 13 Sudoeste 0 -- -- 97
2021-01-20 00:00:00 8 3 Sudoeste 12 Oeste 0 -- -- 96
2021-01-19 23:00:00 9.2 10 Sur 17 Sur 0 -- -- 98
2021-01-19 22:00:00 7.6 8 Sudoeste 16 Sur 0 -- -- 100
2021-01-19 21:00:00 7.2 4 Oeste 11 Sur 0 -- -- 97
2021-01-19 20:00:00 7.1 2 Sur 8 Oeste 0 -- -- 94
2021-01-19 19:00:00 8.4 0 Calma 4 Norte 0 -- -- 86
2021-01-19 18:00:00 12.3 3 Este 8 Nordeste 0 -- -- 75
2021-01-19 17:00:00 14.6 5 Nordeste 13 Este 0 -- -- 63
2021-01-19 16:00:00 15.2 8 Nordeste 15 Nordeste 0 -- -- 61
2021-01-19 15:00:00 14.9 7 Nordeste 11 Este 0 -- -- 62
2021-01-19 14:00:00 12.7 2 Noroeste 8 Norte 0 -- -- 70
2021-01-19 13:00:00 10.2 3 Sudoeste 6 Este 0 -- -- 78
2021-01-19 12:00:00 7.9 0 Calma 7 Sudoeste 0 -- -- 100
2021-01-19 11:00:00 6.5 4 Oeste 8 Sudoeste 0 -- -- 100
2021-01-19 10:00:00 5.5 4 Sudoeste 8 Sudoeste 0 -- -- 100
2021-01-19 09:00:00 5.5 0 Calma 3 Oeste 0 -- -- 100
2021-01-19 08:00:00 5.4 0 Calma 2 Noroeste 0 -- -- 100
2021-01-19 07:00:00 5.8 2 Norte 3 Norte 0 -- -- 100
2021-01-19 06:00:00 5.7 0 Calma 4 Norte 0 -- -- 100
2021-01-19 05:00:00 5.6 0 Calma 4 Norte 0 -- -- 100
2021-01-19 04:00:00 5.3 0 Calma 2 Nordeste 0 -- -- 100
2021-01-19 03:00:00 5.4 2 Nordeste 10 Este 0 -- -- 99
2021-01-19 02:00:00 4.3 6 Nordeste 9 Este 0 -- -- 99
2021-01-19 01:00:00 3.3 0 Calma 2 Norte 0 -- -- 98
2021-01-19 00:00:00 3.8 0 Calma 3 Sudoeste 0 -- -- 97
2021-01-18 23:00:00 4.4 0 Calma 8 Sudoeste 0 -- -- 96
2021-01-18 22:00:00 5 2 Sur 5 Sudoeste 0 -- -- 95
2021-01-18 21:00:00 6 0 Calma 6 Oeste 0 -- -- 92
2021-01-18 20:00:00 7.8 3 Sudoeste 9 Sur 0 -- -- 88
2021-01-18 19:00:00 10.7 5 Sudoeste 12 Oeste 0 -- -- 78
2021-01-18 18:00:00 14.2 4 Sudeste 12 Sur 0 -- -- 59
2021-01-18 17:00:00 16.4 3 Nordeste 8 Nordeste 0 -- -- 44
2021-01-18 16:00:00 17 4 Nordeste 12 Norte 0 -- -- 39
2021-01-18 15:00:00 16.5 7 Norte 13 Nordeste 0 -- -- 38
2021-01-18 14:00:00 15.7 7 Norte 14 Norte 0 -- -- 39
2021-01-18 13:00:00 14.6 8 Nordeste 16 Nordeste 0 -- -- 40
2021-01-18 12:00:00 13 7 Nordeste 10 Nordeste 0 -- -- 43
2021-01-18 11:00:00 8.5 4 Norte 8 Norte 0 -- -- 60
2021-01-18 10:00:00 5.5 6 Nordeste 15 Nordeste 0 -- -- 68
2021-01-18 09:00:00 4 9 Nordeste 12 Nordeste 0 -- -- 73
2021-01-18 08:00:00 4.7 6 Nordeste 12 Norte 0 -- -- 72
2021-01-18 07:00:00 9.6 9 Este 14 Este 0 -- -- 50
2021-01-18 06:00:00 10.8 8 Nordeste 18 Este 0 -- -- 41
2021-01-18 05:00:00 10.9 9 Este 18 Este 0 -- -- 43
2021-01-18 04:00:00 12.2 8 Nordeste 30 Nordeste 0 -- -- 33
2021-01-18 03:00:00 12.4 9 Nordeste 22 Este 0 -- -- 31
2021-01-18 02:00:00 11.6 9 Este 19 Este 0 -- -- 32
2021-01-18 01:00:00 12.4 12 Este 22 Nordeste 0 -- -- 28
2021-01-18 00:00:00 12.5 11 Nordeste 22 Este 0 -- -- 29
2021-01-17 23:00:00 11.7 8 Nordeste 17 Este 0 -- -- 33
2021-01-17 22:00:00 10.9 7 Este 14 Este 0 -- -- 36
2021-01-17 21:00:00 9.7 3 Nordeste 14 Este 0 -- -- 42
2021-01-17 20:00:00 7 4 Este 10 Sur 0 -- -- 65
2021-01-17 19:00:00 9.4 6 Sudoeste 13 Sur 0 -- -- 72
2021-01-17 18:00:00 15 6 Sudoeste 12 Sudoeste 0 -- -- 50
2021-01-17 17:00:00 19.4 3 Norte 11 Noroeste 0 -- -- 22
2021-01-17 16:00:00 20.1 8 Norte 20 Noroeste 0 -- -- 20
2021-01-17 15:00:00 19.8 9 Noroeste 25 Noroeste 0 -- -- 18
2021-01-17 14:00:00 19.8 9 Noroeste 25 Norte 0 -- -- 18
2021-01-17 13:00:00 17.2 5 Este 13 Sudoeste 0 -- -- 23
2021-01-17 12:00:00 12.8 8 Sudoeste 15 Sudoeste 0 -- -- 45
2021-01-17 11:00:00 9.1 8 Sudoeste 15 Sudoeste 0 -- -- 56
2021-01-17 10:00:00 2.9 4 Sudoeste 11 Sur 0 -- -- 87
2021-01-17 09:00:00 -0.1 5 Sudoeste 12 Sudoeste 0 -- -- 93
2021-01-17 08:00:00 -0.1 7 Sur 11 Sur 0 -- -- 94
2021-01-17 07:00:00 0.3 8 Sudoeste 12 Sur 0 -- -- 93
2021-01-17 06:00:00 0.6 7 Sur 12 Oeste 0 -- -- 94
2021-01-17 05:00:00 1.3 5 Sudoeste 11 Sudoeste 0 -- -- 93
2021-01-17 04:00:00 1.5 7 Sudoeste 13 Sudoeste 0 -- -- 92
2021-01-17 03:00:00 2.2 7 Sudoeste 13 Sudoeste 0 -- -- 94
2021-01-17 02:00:00 2.8 5 Sudoeste 15 Sur 0 -- -- 92
2021-01-17 01:00:00 3.7 7 Sudoeste 14 Sudoeste 0 -- -- 92
2021-01-17 00:00:00 6 8 Sudoeste 17 Sur 0 -- -- 90
2021-01-16 23:00:00 4.4 5 Sudoeste 12 Sudoeste 0 -- -- 94
2021-01-16 22:00:00 5.4 6 Sudoeste 18 Sur 0 -- -- 85
2021-01-16 21:00:00 5.6 8 Sudoeste 13 Sudoeste 0 -- -- 92
2021-01-16 20:00:00 6.1 7 Sudoeste 11 Sudoeste 0 -- -- 85
2021-01-16 19:00:00 7.4 2 Sur 9 Sur 0 -- -- 69
2021-01-16 18:00:00 11.8 6 Sudeste 9 Sudeste 0 -- -- 46
2021-01-16 17:00:00 14.8 5 Este 14 Este 0 -- -- 31
2021-01-16 16:00:00 15.9 6 Este 14 Este 0 -- -- 29
2021-01-16 15:00:00 14.9 7 Norte 17 Norte 0 -- -- 28
2021-01-16 14:00:00 14 6 Noroeste 15 Noroeste 0 -- -- 32
2021-01-16 13:00:00 13.1 7 Norte 24 Noroeste 0 -- -- 36
2021-01-16 12:00:00 12.2 6 Nordeste 19 Nordeste 0 -- -- 36
2021-01-16 11:00:00 10.5 8 Este 16 Este 0 -- -- 41
2021-01-16 10:00:00 7.4 3 Nordeste 8 Nordeste 0 -- -- 52
2021-01-16 09:00:00 7.2 6 Nordeste 18 Nordeste 0 -- -- 50
2021-01-16 08:00:00 7.4 9 Nordeste 35 Nordeste 0 -- -- 50
2021-01-16 07:00:00 8.3 13 Nordeste 42 Nordeste 0 -- -- 48
2021-01-16 06:00:00 8.7 19 Nordeste 32 Este 0 -- -- 46
2021-01-16 05:00:00 9.3 18 Nordeste 29 Nordeste 0 -- -- 42
2021-01-16 04:00:00 7.6 11 Nordeste 25 Nordeste 0 -- -- 46
2021-01-16 03:00:00 10.1 17 Nordeste 28 Nordeste 0 -- -- 35
2021-01-16 02:00:00 10.6 4 Nordeste 18 Norte 0 -- -- 33
2021-01-16 01:00:00 10.1 7 Nordeste 23 Nordeste 0 -- -- 33
2021-01-16 00:00:00 10.7 7 Norte 22 Norte 0 -- -- 32
2021-01-15 23:00:00 9.1 10 Este 17 Este 0 -- -- 37
2021-01-15 22:00:00 10.1 4 Nordeste 27 Este 0 -- -- 43
2021-01-15 21:00:00 11.1 12 Este 20 Nordeste 0 -- -- 35
2021-01-15 20:00:00 11.8 12 Nordeste 19 Nordeste 0 -- -- 35
2021-01-15 19:00:00 12.1 9 Nordeste 22 Este 0 -- -- 38
2021-01-15 18:00:00 14.4 9 Norte 17 Norte 0 -- -- 35
2021-01-15 17:00:00 16.5 9 Norte 19 Norte 0 -- -- 35
2021-01-15 16:00:00 17.3 9 Norte 21 Norte 0 -- -- 33
2021-01-15 15:00:00 16.8 12 Norte 26 Noroeste 0 -- -- 34
2021-01-15 14:00:00 16 14 Norte 22 Norte 0 -- -- 37
2021-01-15 13:00:00 15.4 8 Norte 21 Noroeste 0 -- -- 37
2021-01-15 12:00:00 13.9 11 Norte 22 Noroeste 0 -- -- 39
2021-01-15 11:00:00 12.7 7 Nordeste 26 Este 0 -- -- 42
2021-01-15 10:00:00 10.8 9 Este 20 Este 0 -- -- 47
2021-01-15 09:00:00 9 7 Este 31 Este 0 -- -- 53
2021-01-15 08:00:00 8.5 6 Nordeste 21 Este 0 -- -- 57
2021-01-15 07:00:00 8.4 9 Nordeste 20 Este 0 -- -- 57
2021-01-15 06:00:00 9 11 Este 21 Nordeste 0 -- -- 51
2021-01-15 05:00:00 9.2 10 Nordeste 24 Este 0 -- -- 45
2021-01-15 04:00:00 9.8 11 Nordeste 31 Noroeste 0 -- -- 39
2021-01-15 03:00:00 10.9 10 Nordeste 26 Nordeste 0 -- -- 34
2021-01-15 02:00:00 10.5 11 Nordeste 25 Nordeste 0 -- -- 36
2021-01-15 01:00:00 10.3 14 Nordeste 24 Nordeste 0 -- -- 38
2021-01-15 00:00:00 10.4 12 Nordeste 23 Nordeste 0 -- -- 38
2021-01-14 23:00:00 10.7 9 Nordeste 23 Nordeste 0 -- -- 38
2021-01-14 22:00:00 6 8 Este 14 Este 0 -- -- 58
2021-01-14 21:00:00 6.3 7 Este 11 Este 0 -- -- 72
2021-01-14 20:00:00 6.2 5 Nordeste 11 Nordeste 0 -- -- 81
2021-01-14 19:00:00 7.5 3 Nordeste 7 Sudoeste 0 -- -- 81
2021-01-14 18:00:00 12 3 Sur 5 Sur 0 -- -- 67
2021-01-14 17:00:00 16.6 3 Oeste 10 Sudoeste 0 -- -- 45
2021-01-14 16:00:00 18.9 5 Sudoeste 21 Norte 0 -- -- 29
2021-01-14 15:00:00 17.9 7 Noroeste 19 Noroeste 0 -- -- 25
2021-01-14 14:00:00 17 3 Este 9 Sur 0 -- -- 28
2021-01-14 13:00:00 14.3 2 Norte 11 Oeste 0 -- -- 33
2021-01-14 12:00:00 11.7 4 Oeste 10 Sur 0 -- -- 47
2021-01-14 11:00:00 7 4 Sudoeste 8 Sudoeste 0 -- -- 66
2021-01-14 10:00:00 1.6 3 Sur 5 Sur 0 -- -- 100
2021-01-14 09:00:00 -1.2 2 Sudoeste 6 Sur 0 -- -- 98
2021-01-14 08:00:00 -1.1 3 Sudoeste 7 Sur 0 -- -- 98
2021-01-14 07:00:00 -0.7 5 Sudoeste 6 Sudoeste 0 -- -- 98
2021-01-14 06:00:00 -0.4 3 Sudoeste 5 Sudoeste 0 -- -- 97
2021-01-14 05:00:00 -0.2 4 Sur 6 Sudoeste 0 -- -- 96
2021-01-14 04:00:00 0 4 Sudoeste 10 Sur 0 -- -- 94
2021-01-14 03:00:00 0.6 6 Sudoeste 9 Sur 0 -- -- 93
2021-01-14 02:00:00 1.2 0 Calma 6 Sudoeste 0 -- -- 89
2021-01-14 01:00:00 2.7 4 Nordeste 12 Este 0 -- -- 82
2021-01-14 00:00:00 1.6 8 Este 10 Este 0 -- -- 95
2021-01-13 23:00:00 1.7 0 Calma 3 Nordeste 0 -- -- 93
2021-01-13 22:00:00 2.7 0 Calma 6 Norte 0 -- -- 90
2021-01-13 21:00:00 3.7 3 Nordeste 7 Nordeste 0 -- -- 88
2021-01-13 20:00:00 5.1 4 Sur 8 Sur 0 -- -- 84
2021-01-13 19:00:00 7.4 6 Sur 11 Sudoeste 0 -- -- 77
2021-01-13 18:00:00 11.7 7 Oeste 14 Oeste 0 -- -- 58
2021-01-13 17:00:00 15.4 2 Noroeste 9 Nordeste 0 -- -- 30
2021-01-13 16:00:00 16.5 5 Nordeste 12 Norte 0 -- -- 27
2021-01-13 15:00:00 15.9 5 Nordeste 10 Nordeste 0 -- -- 27
2021-01-13 14:00:00 15 3 Norte 13 Nordeste 0 -- -- 27
2021-01-13 13:00:00 13.7 10 Nordeste 17 Nordeste 0 -- -- 35
2021-01-13 12:00:00 13.1 7 Nordeste 17 Nordeste 0 -- -- 29
2021-01-13 11:00:00 9.9 9 Nordeste 18 Este 0 -- -- 37
2021-01-13 10:00:00 8.3 5 Nordeste 17 Nordeste 0 -- -- 40
2021-01-13 09:00:00 1.6 3 Nordeste 8 Nordeste 0 -- -- 74
2021-01-13 08:00:00 3.6 3 Nordeste 11 Nordeste 0 -- -- 61
2021-01-13 07:00:00 3.4 5 Norte 14 Este 0 -- -- 60
2021-01-13 06:00:00 1.1 3 Nordeste 7 Nordeste 0 -- -- 78
2021-01-13 05:00:00 1.8 0 Calma 12 Este 0 -- -- 73
2021-01-13 04:00:00 0.3 3 Nordeste 7 Sudoeste 0 -- -- 93
2021-01-13 03:00:00 0.6 2 Sudoeste 10 Sur 0 -- -- 92
2021-01-13 02:00:00 1.8 3 Noroeste 14 Este 0 -- -- 84
2021-01-13 01:00:00 1.8 3 Nordeste 12 Este 0 -- -- 89
2021-01-13 00:00:00 1.4 4 Sur 10 Noroeste 0 -- -- 91
2021-01-12 23:00:00 2.9 0 Calma 12 Nordeste 0 -- -- 82
2021-01-12 22:00:00 3.6 9 Nordeste 12 Nordeste 0 -- -- 76
2021-01-12 21:00:00 3.1 4 Nordeste 9 Este 0 -- -- 81
2021-01-12 20:00:00 5.4 6 Este 12 Este 0 -- -- 65
2021-01-12 19:00:00 6.4 5 Este 11 Este 0 -- -- 65
2021-01-12 18:00:00 10.2 3 Este 11 Noroeste 0 -- -- 52
2021-01-12 17:00:00 12.2 5 Norte 11 Noroeste 0 -- -- 44
2021-01-12 16:00:00 13.2 5 Noroeste 12 Nordeste 0 -- -- 43
2021-01-12 15:00:00 13 6 Norte 10 Nordeste 0 -- -- 43
2021-01-12 14:00:00 12 3 Nordeste 13 Este 0 -- -- 45
2021-01-12 13:00:00 10.7 5 Norte 15 Norte 0 -- -- 48
2021-01-12 12:00:00 9.1 8 Norte 15 Nordeste 0 -- -- 53
2021-01-12 11:00:00 7.2 3 Norte 13 Este 0 -- -- 58
2021-01-12 10:00:00 4.8 9 Este 16 Este 0 -- -- 70
2021-01-12 09:00:00 2.9 10 Nordeste 19 Nordeste 0 -- -- 78
2021-01-12 08:00:00 3.1 8 Nordeste 21 Nordeste 0 -- -- 79
2021-01-12 07:00:00 1.9 10 Este 14 Este 0 -- -- 85
2021-01-12 06:00:00 1.8 10 Este 13 Este 0 -- -- 86
2021-01-12 05:00:00 3 10 Nordeste 14 Nordeste 0 -- -- 78
2021-01-12 04:00:00 3.4 7 Norte 15 Norte 0 -- -- 73
2021-01-12 03:00:00 3.2 4 Nordeste 17 Nordeste 0 -- -- 75
2021-01-12 02:00:00 4.3 9 Este 17 Este 0 -- -- 69
2021-01-12 01:00:00 4.6 11 Este 19 Este 0 -- -- 67
2021-01-12 00:00:00 3.9 2 Norte 17 Nordeste 0 -- -- 76
2021-01-11 23:00:00 5.2 9 Este 16 Nordeste 0 -- -- 72
2021-01-11 22:00:00 5.9 6 Norte 14 Norte 0 -- -- 71
2021-01-11 21:00:00 5.5 7 Nordeste 11 Este 0 -- -- 83
2021-01-11 20:00:00 6.9 4 Nordeste 9 Nordeste 0 -- -- 76
2021-01-11 19:00:00 7.8 3 Nordeste 7 Norte 0 -- -- 79
2021-01-11 18:00:00 9.6 4 Sudeste 6 Este 0 -- -- 72
2021-01-11 17:00:00 10.7 3 Este 10 Este 0 -- -- 60
2021-01-11 16:00:00 11.2 5 Este 12 Nordeste 0 -- -- 57
2021-01-11 15:00:00 11 8 Nordeste 16 Este 0 -- -- 57
2021-01-11 14:00:00 10.6 6 Este 15 Nordeste 0 -- -- 61
2021-01-11 13:00:00 9.7 6 Nordeste 13 Nordeste 0 -- -- 64
2021-01-11 12:00:00 8.9 6 Nordeste 12 Nordeste 0 -- -- 68
2021-01-11 11:00:00 8.1 6 Nordeste 14 Este 0 -- -- 69
2021-01-11 10:00:00 7.2 5 Nordeste 17 Nordeste 0 -- -- 72
2021-01-11 09:00:00 6.5 5 Nordeste 14 Nordeste 0 -- -- 77
2021-01-11 08:00:00 6.2 6 Este 15 Nordeste 0 -- -- 78
2021-01-11 07:00:00 6.3 6 Nordeste 14 Este 0 -- -- 78
2021-01-11 06:00:00 6.2 6 Nordeste 17 Este 0 -- -- 80
2021-01-11 05:00:00 5.9 6 Nordeste 21 Nordeste 0 -- -- 83
2021-01-11 04:00:00 4.1 4 Nordeste 10 Este 0 -- -- 90
2021-01-11 03:00:00 4.9 5 Nordeste 15 Nordeste 0 -- -- 89
2021-01-11 02:00:00 6.3 7 Norte 15 Norte 0 -- -- 81
2021-01-11 01:00:00 6.4 6 Este 21 Este 0 -- -- 83
2021-01-11 00:00:00 6.6 6 Este 13 Este 0 -- -- 82
2021-01-10 23:00:00 5.6 5 Este 11 Este 0 -- -- 89
2021-01-10 22:00:00 5.2 3 Nordeste 8 Nordeste 0 -- -- 98
2021-01-10 21:00:00 4.5 6 Nordeste 7 Nordeste 0 -- -- 98
2021-01-10 20:00:00 3.8 3 Nordeste 7 Nordeste 0 -- -- 94
2021-01-10 19:00:00 5.4 7 Este 10 Este 0 -- -- 88
2021-01-10 18:00:00 7.8 4 Nordeste 13 Nordeste 0 -- -- 77
2021-01-10 17:00:00 8.5 6 Nordeste 14 Este 0 -- -- 74
2021-01-10 16:00:00 8.8 6 Nordeste 18 Nordeste 0 -- -- 71
2021-01-10 15:00:00 8.3 6 Nordeste 18 Norte 0 -- -- 71
2021-01-10 14:00:00 6.9 6 Nordeste 17 Nordeste 0 -- -- 82
2021-01-10 13:00:00 7.4 11 Nordeste 18 Nordeste 0 -- -- 73
2021-01-10 12:00:00 7 10 Nordeste 15 Nordeste 0 -- -- 73
2021-01-10 11:00:00 6.6 5 Nordeste 15 Nordeste 0 -- -- 75
2021-01-10 10:00:00 5.7 5 Nordeste 18 Norte 0 -- -- 83
2021-01-10 09:00:00 4.9 8 Nordeste 22 Norte 0 -- -- 81
2021-01-10 08:00:00 4.7 8 Nordeste 17 Este 0 -- -- 87
2021-01-10 07:00:00 4.5 7 Nordeste 14 Este 0 -- -- 99
2021-01-10 06:00:00 4.1 5 Nordeste 9 Norte 0.2 -- -- 100
2021-01-10 05:00:00 4.2 4 Nordeste 14 Nordeste 0 -- -- 100
2021-01-10 04:00:00 3.7 8 Nordeste 11 Nordeste 0 -- -- 99
2021-01-10 03:00:00 3 6 Nordeste 10 Nordeste 0 -- -- 99
2021-01-10 02:00:00 2.8 7 Nordeste 8 Nordeste 0 -- -- 97
2021-01-10 01:00:00 3.8 5 Norte 8 Nordeste 0 -- -- 94
2021-01-10 00:00:00 5.2 7 Este 10 Este 0 -- -- 89
2021-01-09 23:00:00 6.1 5 Nordeste 8 Este 0 -- -- 87
2021-01-09 22:00:00 6.1 7 Norte 12 Nordeste 0 -- -- 86
2021-01-09 21:00:00 6.4 8 Nordeste 20 Nordeste 0 -- -- 85
2021-01-09 20:00:00 6.9 6 Nordeste 13 Norte 0 -- -- 83
2021-01-09 19:00:00 8.2 8 Nordeste 18 Nordeste 0 -- -- 84
2021-01-09 18:00:00 8.9 9 Norte 19 Nordeste 0 -- -- 85
2021-01-09 17:00:00 9.3 8 Este 18 Nordeste 0 -- -- 87
2021-01-09 16:00:00 9.7 12 Nordeste 18 Nordeste 0 -- -- 85
2021-01-09 15:00:00 9.9 11 Nordeste 17 Nordeste 0 -- -- 83
2021-01-09 14:00:00 9 11 Nordeste 18 Este 0 -- -- 87
2021-01-09 13:00:00 8.2 10 Nordeste 15 Nordeste 0 -- -- 88
2021-01-09 12:00:00 7.6 6 Nordeste 12 Nordeste 0 -- -- 90
2021-01-09 11:00:00 6.8 8 Nordeste 13 Nordeste 0 -- -- 96
2021-01-09 10:00:00 5.9 6 Nordeste 10 Nordeste 0 -- -- 100
2021-01-09 09:00:00 5.6 8 Nordeste 12 Nordeste 0 -- -- 100
2021-01-09 08:00:00 5.6 4 Nordeste 13 Nordeste 0 -- -- 100
2021-01-09 07:00:00 5.7 4 Nordeste 12 Nordeste 0.2 -- -- 100
2021-01-09 06:00:00 5.8 7 Nordeste 14 Nordeste 0 -- -- 100
2021-01-09 05:00:00 5.8 6 Nordeste 14 Nordeste 0.6 -- -- 100
2021-01-09 04:00:00 6.2 8 Nordeste 16 Este 0.6 -- -- 100
2021-01-09 03:00:00 6.1 6 Nordeste 10 Nordeste 0.4 -- -- 100
2021-01-09 02:00:00 6.1 6 Norte 23 Norte 0.6 -- -- 100
2021-01-09 01:00:00 5.5 13 Norte 19 Norte 0.4 -- -- 100
2021-01-09 00:00:00 5.6 9 Nordeste 21 Nordeste 0.8 -- -- 100
2021-01-08 23:00:00 5.8 15 Nordeste 27 Nordeste 0.4 -- -- 100
2021-01-08 22:00:00 5.8 20 Nordeste 31 Nordeste 0.2 -- -- 100
2021-01-08 21:00:00 5.7 15 Norte 22 Nordeste 0.8 -- -- 100
2021-01-08 20:00:00 5.9 10 Norte 24 Norte 1 -- -- 100
2021-01-08 19:00:00 5.9 14 Norte 23 Norte 1.4 -- -- 100
2021-01-08 18:00:00 5.4 12 Norte 19 Nordeste 0.4 -- -- 100
2021-01-08 17:00:00 5.4 10 Nordeste 17 Nordeste 0.8 -- -- 99
2021-01-08 16:00:00 5 10 Nordeste 24 Nordeste 1.2 -- -- 100
2021-01-08 15:00:00 5.1 13 Nordeste 22 Nordeste 0.8 -- -- 99
2021-01-08 14:00:00 5.3 9 Nordeste 15 Nordeste 0.6 -- -- 99
2021-01-08 13:00:00 5.1 6 Nordeste 17 Nordeste 1 -- -- 99
2021-01-08 12:00:00 5 9 Nordeste 17 Nordeste 0.6 -- -- 99
2021-01-08 11:00:00 4.6 8 Nordeste 15 Nordeste 2 -- -- 100
2021-01-08 10:00:00 4.2 7 Nordeste 15 Nordeste 0.4 -- -- 100
2021-01-08 09:00:00 4 9 Nordeste 16 Nordeste 0.6 -- -- 100
2021-01-08 08:00:00 3.8 10 Nordeste 20 Nordeste 0.6 -- -- 99
2021-01-08 07:00:00 4 11 Nordeste 17 Nordeste 0.2 -- -- 98
2021-01-08 06:00:00 3.8 12 Nordeste 19 Nordeste 0.2 -- -- 97
2021-01-08 05:00:00 3.6 9 Nordeste 28 Norte 0.4 -- -- 96
2021-01-08 04:00:00 3.5 14 Norte 28 Norte 1 -- -- 94
2021-01-08 03:00:00 3.6 17 Norte 28 Norte 0.6 -- -- 93
2021-01-08 02:00:00 3.8 8 Nordeste 24 Nordeste 2.8 -- -- 95
2021-01-08 01:00:00 4.2 12 Nordeste 21 Nordeste 3.2 -- -- 95
2021-01-08 00:00:00 4.4 8 Nordeste 19 Nordeste 0.4 -- -- 96
2021-01-07 23:00:00 4.7 7 Nordeste 15 Nordeste 0 -- -- 93
2021-01-07 22:00:00 4.7 7 Nordeste 17 Norte 0 -- -- 92
2021-01-07 21:00:00 4.7 9 Norte 18 Norte 0 -- -- 93
2021-01-07 20:00:00 4.6 7 Nordeste 19 Nordeste 0 -- -- 95
2021-01-07 19:00:00 4.5 9 Nordeste 22 Norte 0.2 -- -- 96
2021-01-07 18:00:00 4.7 12 Nordeste 26 Norte 0 -- -- 97
2021-01-07 17:00:00 5 9 Nordeste 23 Nordeste 0.6 -- -- 95
2021-01-07 16:00:00 5.3 9 Nordeste 18 Nordeste 0.4 -- -- 98
2021-01-07 15:00:00 5.3 8 Nordeste 14 Nordeste 0.2 -- -- 98
2021-01-07 14:00:00 5.2 6 Nordeste 12 Nordeste 0.8 -- -- 97
2021-01-07 13:00:00 5.2 5 Nordeste 15 Nordeste 0.8 -- -- 97
2021-01-07 12:00:00 4.9 6 Nordeste 10 Nordeste 0.4 -- -- 97
2021-01-07 11:00:00 4.7 6 Nordeste 10 Nordeste 1 -- -- 96
2021-01-07 10:00:00 4.4 6 Nordeste 13 Nordeste 0.8 -- -- 96
2021-01-07 09:00:00 3.9 11 Norte 19 Nordeste 0.8 -- -- 97
2021-01-07 08:00:00 4.3 11 Nordeste 17 Norte 1.2 -- -- 98
2021-01-07 07:00:00 4.8 10 Nordeste 22 Nordeste 1.2 -- -- 98
2021-01-07 06:00:00 4.8 10 Nordeste 18 Nordeste 1.4 -- -- 98
2021-01-07 05:00:00 5.1 10 Nordeste 22 Nordeste 1 -- -- 99
2021-01-07 04:00:00 5.5 16 Nordeste 28 Nordeste 2 -- -- 99
2021-01-07 03:00:00 5.7 9 Nordeste 15 Norte 1 -- -- 98
2021-01-07 02:00:00 5.8 7 Norte 11 Nordeste 1 -- -- 97
2021-01-07 01:00:00 6.2 4 Norte 8 Norte 0.4 -- -- 95
2021-01-07 00:00:00 6.5 5 Norte 10 Noroeste 0.2 -- -- 94
2021-01-06 23:00:00 6.7 3 Nordeste 10 Nordeste 0.4 -- -- 91
2021-01-06 22:00:00 7.5 8 Nordeste 14 Nordeste 0 -- -- 81
2021-01-06 21:00:00 8.1 10 Nordeste 15 Nordeste 0 -- -- 73
2021-01-06 20:00:00 8.2 6 Norte 13 Norte 0 -- -- 68
2021-01-06 19:00:00 8.4 5 Nordeste 15 Nordeste 0 -- -- 69
2021-01-06 18:00:00 8.6 4 Este 10 Nordeste 0 -- -- 64
2021-01-06 17:00:00 10 7 Nordeste 15 Nordeste 0 -- -- 45
2021-01-06 16:00:00 11.1 9 Nordeste 17 Norte 0 -- -- 46
2021-01-06 15:00:00 10.6 12 Nordeste 17 Nordeste 0 -- -- 45
2021-01-06 14:00:00 10 10 Nordeste 19 Nordeste 0 -- -- 47
2021-01-06 13:00:00 9.5 10 Nordeste 15 Nordeste 0 -- -- 47
2021-01-06 12:00:00 8.2 10 Nordeste 15 Este 0 -- -- 46
2021-01-06 11:00:00 6.3 9 Nordeste 14 Norte 0 -- -- 54
2021-01-06 10:00:00 3.8 6 Nordeste 12 Nordeste 0 -- -- 63
2021-01-06 09:00:00 2.1 8 Nordeste 13 Este 0 -- -- 70
2021-01-06 08:00:00 1.8 5 Norte 13 Este 0 -- -- 69
2021-01-06 07:00:00 1.9 7 Nordeste 11 Nordeste 0 -- -- 68
2021-01-06 06:00:00 2.2 8 Nordeste 13 Este 0 -- -- 68
2021-01-06 05:00:00 2.7 6 Este 14 Nordeste 0 -- -- 64
2021-01-06 04:00:00 2.1 7 Nordeste 11 Nordeste 0 -- -- 68
2021-01-06 03:00:00 2.6 7 Nordeste 10 Nordeste 0 -- -- 68
2021-01-06 02:00:00 2.8 6 Nordeste 9 Nordeste 0 -- -- 65
2021-01-06 01:00:00 3.7 6 Nordeste 10 Nordeste 0 -- -- 58
2021-01-06 00:00:00 4.8 4 Nordeste 10 Nordeste 0 -- -- 51
2021-01-05 23:00:00 5 7 Este 10 Este 0 -- -- 50
2021-01-05 22:00:00 5.6 6 Este 11 Este 0 -- -- 51
2021-01-05 21:00:00 4.6 0 Calma 5 Este 0 -- -- 64
2021-01-05 20:00:00 5.7 0 Calma 7 Este 0 -- -- 59
2021-01-05 19:00:00 7.5 3 Nordeste 9 Este 0 -- -- 50
2021-01-05 18:00:00 8.8 6 Este 10 Este 0 -- -- 43
2021-01-05 17:00:00 10.1 5 Nordeste 14 Nordeste 0 -- -- 38
2021-01-05 16:00:00 11.6 6 Nordeste 15 Nordeste 0 -- -- 33
2021-01-05 15:00:00 11 13 Este 23 Este 0 -- -- 37
2021-01-05 14:00:00 10.4 8 Nordeste 21 Nordeste 0 -- -- 39
2021-01-05 13:00:00 10.8 9 Norte 21 Norte 0 -- -- 36
2021-01-05 12:00:00 9 10 Nordeste 19 Este 0 -- -- 44
2021-01-05 11:00:00 7 11 Este 19 Este 0 -- -- 51
2021-01-05 10:00:00 3.8 4 Norte 12 Norte 0 -- -- 66
2021-01-05 09:00:00 2.4 6 Norte 16 Este 0 -- -- 69
2021-01-05 08:00:00 2.1 5 Este 11 Este 0 -- -- 72
2021-01-05 07:00:00 1.6 7 Nordeste 13 Nordeste 0 -- -- 76
2021-01-05 06:00:00 2.8 6 Nordeste 14 Este 0 -- -- 71
2021-01-05 05:00:00 3.4 4 Nordeste 13 Este 0 -- -- 70
2021-01-05 04:00:00 2.1 5 Nordeste 9 Este 0 -- -- 83
2021-01-05 03:00:00 2.8 0 Calma 9 Este 0 -- -- 78
2021-01-05 02:00:00 5.2 3 Nordeste 17 Este 0 -- -- 68
2021-01-05 01:00:00 5.1 12 Este 17 Este 0 -- -- 67
2021-01-05 00:00:00 3.6 0 Calma 12 Este 0 -- -- 75
2021-01-04 23:00:00 2.6 8 Este 12 Este 0 -- -- 78
2021-01-04 22:00:00 3.9 3 Norte 13 Este 0 -- -- 71
2021-01-04 21:00:00 4.5 0 Calma 10 Nordeste 0 -- -- 71
2021-01-04 20:00:00 6.9 3 Nordeste 15 Este 0 -- -- 62
2021-01-04 19:00:00 7.6 6 Nordeste 12 Este 0 -- -- 56
2021-01-04 18:00:00 10.6 6 Nordeste 13 Este 0 -- -- 43
2021-01-04 17:00:00 13.2 8 Sur 20 Sur 0 -- -- 38
2021-01-04 16:00:00 14 9 Sur 20 Sudoeste 0 -- -- 32
2021-01-04 15:00:00 14.4 6 Sudoeste 17 Sur 0 -- -- 29
2021-01-04 14:00:00 14 9 Sur 19 Sur 0 -- -- 33
2021-01-04 13:00:00 12.4 10 Sur 22 Sudoeste 0 -- -- 35
2021-01-04 12:00:00 10.5 7 Sudoeste 15 Sur 0 -- -- 40
2021-01-04 11:00:00 6.1 5 Sudoeste 12 Sudoeste 0 -- -- 51
2021-01-04 10:00:00 1 3 Sur 9 Sudeste 0 -- -- 69
2021-01-04 09:00:00 -2 4 Sudoeste 14 Noroeste 0 -- -- 76
2021-01-04 08:00:00 -2.8 2 Sudoeste 13 Oeste 0 -- -- 81
2021-01-04 07:00:00 -2.6 3 Norte 9 Norte 0 -- -- 75
2021-01-04 06:00:00 -2 8 Sur 12 Sur 0 -- -- 74
2021-01-04 05:00:00 -1.5 6 Sudoeste 14 Oeste 0 -- -- 70
2021-01-04 04:00:00 -0.7 6 Nordeste 11 Este 0 -- -- 67
2021-01-04 03:00:00 -2.4 4 Este 8 Sudeste 0 -- -- 79
2021-01-04 02:00:00 -1.4 4 Sur 9 Sur 0 -- -- 75
2021-01-04 01:00:00 0.1 6 Nordeste 9 Nordeste 0 -- -- 65
2021-01-04 00:00:00 0.7 8 Este 13 Este 0 -- -- 62
2021-01-03 23:00:00 -0.3 0 Calma 5 Noroeste 0 -- -- 74
2021-01-03 22:00:00 0.7 4 Sudoeste 11 Sur 0 -- -- 66
2021-01-03 21:00:00 2.8 0 Calma 12 Sudeste 0 -- -- 63
2021-01-03 20:00:00 4.6 0 Calma 12 Este 0 -- -- 56
2021-01-03 19:00:00 6.3 9 Este 13 Este 0 -- -- 47
2021-01-03 18:00:00 8.8 8 Este 16 Norte 0 -- -- 41
2021-01-03 17:00:00 11.4 6 Norte 22 Noroeste 0 -- -- 31
2021-01-03 16:00:00 12.5 8 Noroeste 26 Noroeste 0 -- -- 28
2021-01-03 15:00:00 12.6 13 Noroeste 33 Noroeste 0 -- -- 27
2021-01-03 14:00:00 12.1 19 Noroeste 35 Noroeste 0 -- -- 27
2021-01-03 13:00:00 11.4 16 Noroeste 36 Noroeste 0 -- -- 29
2021-01-03 12:00:00 10.5 18 Noroeste 37 Noroeste 0 -- -- 32
2021-01-03 11:00:00 9.4 10 Noroeste 26 Norte 0 -- -- 34
2021-01-03 10:00:00 7.4 6 Norte 18 Este 0 -- -- 39
2021-01-03 09:00:00 4.4 4 Nordeste 13 Nordeste 0 -- -- 47
2021-01-03 08:00:00 4.3 3 Sudeste 18 Noroeste 0 -- -- 48
2021-01-03 07:00:00 5.9 8 Noroeste 24 Noroeste 0 -- -- 42
2021-01-03 06:00:00 5.3 5 Noroeste 14 Este 0 -- -- 39
2021-01-03 05:00:00 4.9 6 Sudeste 18 Este 0 -- -- 44
2021-01-03 04:00:00 5.5 6 Norte 27 Norte 0 -- -- 42
2021-01-03 03:00:00 5.8 6 Nordeste 26 Noroeste 0 -- -- 43
2021-01-03 02:00:00 5.8 7 Noroeste 23 Noroeste 0 -- -- 44
2021-01-03 01:00:00 6.3 9 Noroeste 22 Norte 0 -- -- 43
2021-01-03 00:00:00 6.4 6 Noroeste 22 Norte 0 -- -- 45
2021-01-02 23:00:00 6.1 10 Nordeste 22 Nordeste 0 -- -- 47
2021-01-02 22:00:00 6.6 9 Este 19 Este 0 -- -- 46
2021-01-02 21:00:00 6.6 8 Nordeste 21 Noroeste 0 -- -- 47
2021-01-02 20:00:00 7.2 5 Noroeste 19 Noroeste 0 -- -- 43
2021-01-02 19:00:00 7.7 3 Noroeste 26 Oeste 0 -- -- 40
2021-01-02 18:00:00 8.8 13 Noroeste 32 Norte 0 -- -- 36
2021-01-02 17:00:00 9.5 17 Noroeste 35 Noroeste 0 -- -- 34
2021-01-02 16:00:00 10.2 14 Noroeste 39 Norte 0 -- -- 32
2021-01-02 15:00:00 10.9 17 Noroeste 41 Noroeste 0 -- -- 32
2021-01-02 14:00:00 11.3 18 Noroeste 41 Noroeste 0 -- -- 27